This is the latest recevied weather packets stored in our database for station/object YO6LRV-3. If no packets are shown the sender has not sent any weather packets the latest 10 day(s).
| Time | Temp. | Humidity | Pressure | Rain* | Wind** | Luminosity | Snow |
|---|---|---|---|---|---|---|---|
| 1777677661 | 8.33° C | 44% | 1021.5 hPa | - | - | - | - |
| 1777676761 | 8.33° C | 43% | 1021.4 hPa | - | - | - | - |
| 1777675861 | 8.33° C | 43% | 1021.5 hPa | - | - | - | - |
| 1777674960 | 8.33° C | 43% | 1021.3 hPa | - | - | - | - |
| 1777674061 | 8.89° C | 42% | 1021.7 hPa | - | - | - | - |
| 1777673160 | 8.89° C | 42% | 1021.9 hPa | - | - | - | - |
| 1777671360 | 8.89° C | 42% | 1022 hPa | - | - | - | - |
| 1777670460 | 9.44° C | 41% | 1022 hPa | - | - | - | - |
| 1777669560 | 9.44° C | 41% | 1021.9 hPa | - | - | - | - |
| 1777668659 | 9.44° C | 41% | 1021.7 hPa | - | - | - | - |
| 1777667759 | 9.44° C | 40% | 1021.8 hPa | - | - | - | - |
| 1777666859 | 9.44° C | 40% | 1021.9 hPa | - | - | - | - |
| 1777665959 | 10° C | 40% | 1021.9 hPa | - | - | - | - |
| 1777665059 | 10° C | 41% | 1021.9 hPa | - | - | - | - |
| 1777664159 | 10.56° C | 40% | 1021.9 hPa | - | - | - | - |
| 1777663259 | 10.56° C | 41% | 1021.9 hPa | - | - | - | - |
| 1777662361 | 10.56° C | 41% | 1021.9 hPa | - | - | - | - |
| 1777661461 | 10° C | 40% | 1021 hPa | - | - | - | - |
| 1777660561 | 11.11° C | 41% | 1021.9 hPa | - | - | - | - |
| 1777659660 | 11.11° C | 41% | 1021.8 hPa | - | - | - | - |
| 1777658760 | 11.11° C | 41% | 1021.7 hPa | - | - | - | - |
| 1777657860 | 11.67° C | 40% | 1021.6 hPa | - | - | - | - |
| 1777656960 | 11.67° C | 41% | 1021.5 hPa | - | - | - | - |
| 1777656060 | 12.22° C | 39% | 1021.5 hPa | - | - | - | - |
| 1777654260 | 12.78° C | 38% | 1021.5 hPa | - | - | - | - |
* Rain since midnight (hover to see other rain measurements)
** Current wind speed in m/s (hover to see current wind gust speed)